Time;durP1;ratioP1;P1;durP2;ratioP2;P2;SDS_P1;SDS_P2;PMS_P1;PMS_P2;Temp;Humidity;BMP_temperature;BMP_pressure;BME280_temperature;BME280_humidity;BME280_pressure;Samples;Min_cycle;Max_cycle;Signal;HPM_P1;HPM_P2
2022/11/26 00:00:31;;;;;;;11.90;6.70;;;;;;;;;;2064532;28;20418;-80
2022/11/26 00:01:49;;;;;;;8.50;7.10;;;;;;;;;;2061604;28;20022;-80
2022/11/26 00:03:09;;;;;;;9.50;6.45;;;;;;;;;;2064082;28;20035;-80
2022/11/26 00:04:28;;;;;;;13.15;7.45;;;;;;;;;;2061586;28;20034;-80
2022/11/26 00:05:48;;;;;;;9.80;6.65;;;;;;;;;;2061476;28;20026;-80
2022/11/26 00:07:09;;;;;;;10.70;6.80;;;;;;;;;;2064939;28;20034;-80
2022/11/26 00:08:33;;;;;;;10.85;7.35;;;;;;;;;;2064133;28;20030;-80
2022/11/26 00:09:52;;;;;;;9.07;6.53;;;;;;;;;;2069828;28;20121;-80
2022/11/26 00:11:13;;;;;;;11.00;6.80;;;;;;;;;;2062915;28;20519;-80
2022/11/26 00:12:33;;;;;;;9.13;6.50;;;;;;;;;;2066610;28;20042;-80
2022/11/26 00:13:53;;;;;;;6.22;5.63;;;;;;;;;;2071154;28;20030;-80
2022/11/26 00:15:14;;;;;;;9.07;6.10;;;;;;;;;;2065233;28;20030;-80
2022/11/26 00:16:34;;;;;;;8.43;5.95;;;;;;;;;;2068479;28;20025;-80
2022/11/26 00:17:53;;;;;;;9.70;5.25;;;;;;;;;;2065104;28;20027;-80
2022/11/26 00:19:12;;;;;;;10.57;5.93;;;;;;;;;;2065176;28;20034;-80
2022/11/26 00:20:31;;;;;;;10.68;6.38;;;;;;;;;;2061765;28;20034;-80
2022/11/26 00:21:50;;;;;;;8.27;5.72;;;;;;;;;;2064917;28;20542;-80
2022/11/26 00:23:16;;;;;;;7.15;5.75;;;;;;;;;;2066971;28;20042;-80
2022/11/26 00:24:35;;;;;;;7.28;5.72;;;;;;;;;;2063780;28;20489;-82
2022/11/26 00:25:55;;;;;;;8.55;5.70;;;;;;;;;;2060973;28;20034;-80
2022/11/26 00:27:14;;;;;;;6.40;5.63;;;;;;;;;;2061377;28;20039;-81
2022/11/26 00:28:35;;;;;;;7.28;5.72;;;;;;;;;;2066838;28;20038;-80
2022/11/26 00:29:54;;;;;;;6.45;5.35;;;;;;;;;;2064449;28;20035;-80
2022/11/26 00:31:14;;;;;;;10.05;5.80;;;;;;;;;;2066382;28;20612;-80
2022/11/26 00:32:33;;;;;;;8.38;5.40;;;;;;;;;;2065257;28;20046;-79
2022/11/26 00:33:52;;;;;;;7.45;5.63;;;;;;;;;;2067250;28;20117;-80
2022/11/26 00:35:11;;;;;;;8.30;5.65;;;;;;;;;;2062263;28;20069;-80
2022/11/26 00:36:31;;;;;;;7.95;5.65;;;;;;;;;;2063275;28;20038;-80
2022/11/26 00:37:55;;;;;;;6.45;5.13;;;;;;;;;;2067092;28;20027;-81
2022/11/26 00:39:18;;;;;;;8.57;5.53;;;;;;;;;;2064516;28;20022;-81
2022/11/26 00:40:37;;;;;;;6.50;5.13;;;;;;;;;;2057320;28;20034;-81
2022/11/26 00:41:56;;;;;;;6.03;4.93;;;;;;;;;;2061652;28;20506;-82
2022/11/26 00:43:15;;;;;;;8.02;5.28;;;;;;;;;;2062802;28;20507;-81
2022/11/26 00:44:34;;;;;;;8.02;5.80;;;;;;;;;;2061856;28;20121;-81
2022/11/26 00:45:53;;;;;;;6.65;5.38;;;;;;;;;;2063790;28;20491;-81
2022/11/26 00:47:12;;;;;;;6.07;5.07;;;;;;;;;;2066323;28;20042;-81
2022/11/26 00:48:31;;;;;;;7.30;5.68;;;;;;;;;;2066012;28;20149;-81
2022/11/26 00:49:50;;;;;;;8.77;5.75;;;;;;;;;;2065153;28;20038;-81
2022/11/26 00:51:14;;;;;;;9.10;5.85;;;;;;;;;;2060509;28;20037;-81
2022/11/26 00:52:33;;;;;;;10.73;5.38;;;;;;;;;;2062073;28;20026;-81
2022/11/26 00:53:53;;;;;;;8.50;5.47;;;;;;;;;;2060652;28;20042;-81
2022/11/26 00:55:35;;;;;;;12.52;5.60;;;;;;;;;;2057300;28;20084;-81
2022/11/26 00:56:54;;;;;;;8.13;5.50;;;;;;;;;;2065718;28;20042;-81
2022/11/26 00:58:33;;;;;;;9.00;5.18;;;;;;;;;;2064295;28;20038;-82
2022/11/26 00:59:52;;;;;;;5.32;4.70;;;;;;;;;;2065694;28;20117;-81
2022/11/26 01:01:12;;;;;;;6.00;5.28;;;;;;;;;;2065221;28;20434;-81
2022/11/26 01:02:31;;;;;;;6.53;5.07;;;;;;;;;;2065567;28;20031;-81
2022/11/26 01:03:50;;;;;;;7.88;4.90;;;;;;;;;;2061386;28;20038;-80
2022/11/26 01:05:09;;;;;;;5.82;5.22;;;;;;;;;;2062784;28;20018;-81
2022/11/26 01:06:33;;;;;;;8.10;4.65;;;;;;;;;;2061687;28;20117;-82
2022/11/26 01:07:52;;;;;;;5.90;4.68;;;;;;;;;;2063196;28;20023;-82
2022/11/26 01:09:19;;;;;;;10.82;5.13;;;;;;;;;;2062147;28;20018;-82
2022/11/26 01:10:38;;;;;;;10.10;5.50;;;;;;;;;;2062662;28;20026;-82
2022/11/26 01:11:57;;;;;;;5.43;4.82;;;;;;;;;;2061660;28;20436;-83
2022/11/26 01:13:16;;;;;;;6.32;5.45;;;;;;;;;;2061775;28;20573;-82
2022/11/26 01:14:35;;;;;;;5.53;4.78;;;;;;;;;;2065718;28;20025;-82
2022/11/26 01:15:55;;;;;;;6.30;4.85;;;;;;;;;;2062932;28;20388;-81
2022/11/26 01:17:14;;;;;;;7.38;4.78;;;;;;;;;;2064458;28;20046;-82
2022/11/26 01:18:33;;;;;;;9.23;5.05;;;;;;;;;;2064556;28;20033;-82
2022/11/26 01:19:52;;;;;;;5.35;4.85;;;;;;;;;;2060515;28;20603;-80
2022/11/26 01:21:11;;;;;;;7.15;4.88;;;;;;;;;;2063427;28;20042;-82
2022/11/26 01:22:30;;;;;;;9.35;4.88;;;;;;;;;;2063920;28;20030;-82
2022/11/26 01:23:49;;;;;;;6.85;4.95;;;;;;;;;;2064883;28;20038;-82
2022/11/26 01:25:07;;;;;;;7.47;5.70;;;;;;;;;;2065030;28;20576;-82
2022/11/26 01:26:27;;;;;;;5.60;5.10;;;;;;;;;;2063377;28;20038;-82
2022/11/26 01:27:46;;;;;;;9.80;5.68;;;;;;;;;;2071516;28;20033;-82
2022/11/26 01:29:05;;;;;;;6.78;4.68;;;;;;;;;;2063814;28;20038;-82
2022/11/26 01:30:27;;;;;;;8.00;4.93;;;;;;;;;;2060997;28;20059;-82
2022/11/26 01:31:46;;;;;;;6.32;4.75;;;;;;;;;;2065457;28;20038;-82
2022/11/26 01:33:05;;;;;;;9.00;5.75;;;;;;;;;;2063799;28;20030;-82
2022/11/26 01:34:24;;;;;;;6.28;4.80;;;;;;;;;;2069210;28;20069;-82
2022/11/26 01:35:43;;;;;;;6.90;4.88;;;;;;;;;;2065663;28;20078;-82
2022/11/26 01:37:09;;;;;;;6.72;4.78;;;;;;;;;;2060962;28;20101;-82
2022/11/26 01:38:28;;;;;;;8.52;5.22;;;;;;;;;;2065611;28;20023;-82
2022/11/26 01:39:47;;;;;;;7.45;5.38;;;;;;;;;;2062253;28;20026;-82
2022/11/26 01:41:13;;;;;;;6.45;5.22;;;;;;;;;;2065199;28;20081;-82
2022/11/26 01:42:43;;;;;;;8.60;5.50;;;;;;;;;;2063363;28;20034;-80
2022/11/26 01:44:03;;;;;;;5.95;5.30;;;;;;;;;;2064962;28;20041;-80
2022/11/26 01:45:22;;;;;;;5.97;5.13;;;;;;;;;;2059169;28;20034;-80
2022/11/26 01:46:41;;;;;;;8.90;4.78;;;;;;;;;;2060313;28;20038;-79
2022/11/26 01:48:00;;;;;;;6.25;4.78;;;;;;;;;;2065715;28;20066;-80
2022/11/26 01:49:23;;;;;;;7.90;5.57;;;;;;;;;;2063439;28;20026;-83
2022/11/26 01:50:57;;;;;;;7.55;5.35;;;;;;;;;;2060037;28;20038;-83
2022/11/26 01:52:23;;;;;;;9.23;5.00;;;;;;;;;;2064355;28;20482;-83
2022/11/26 01:53:42;;;;;;;8.43;4.90;;;;;;;;;;2070975;28;20046;-83
2022/11/26 01:55:01;;;;;;;7.60;5.32;;;;;;;;;;2062768;28;20018;-83
2022/11/26 01:56:19;;;;;;;5.70;5.10;;;;;;;;;;2063077;28;20030;-82
2022/11/26 01:57:40;;;;;;;7.68;5.50;;;;;;;;;;2058695;28;20026;-83
2022/11/26 01:59:18;;;;;;;7.18;4.90;;;;;;;;;;2059248;28;20027;-83
2022/11/26 02:00:37;;;;;;;10.20;4.80;;;;;;;;;;2063205;28;20023;-82
2022/11/26 02:01:57;;;;;;;8.15;5.22;;;;;;;;;;2064294;28;20026;-82
2022/11/26 02:03:17;;;;;;;6.00;4.80;;;;;;;;;;2064145;28;20023;-83
2022/11/26 02:04:53;;;;;;;8.27;5.30;;;;;;;;;;2065522;28;20038;-83
2022/11/26 02:06:15;;;;;;;7.82;5.53;;;;;;;;;;2064178;28;20030;-83
2022/11/26 02:07:35;;;;;;;6.97;5.20;;;;;;;;;;2065129;28;20034;-83
2022/11/26 02:08:54;;;;;;;8.30;5.63;;;;;;;;;;2064623;28;20117;-83
2022/11/26 02:10:13;;;;;;;7.55;5.18;;;;;;;;;;2061890;28;20038;-82
2022/11/26 02:11:32;;;;;;;8.45;5.25;;;;;;;;;;2060855;28;20046;-82
2022/11/26 02:12:52;;;;;;;9.52;5.82;;;;;;;;;;2062289;28;20042;-82
2022/11/26 02:14:11;;;;;;;11.45;5.57;;;;;;;;;;2066648;28;20431;-82
2022/11/26 02:15:35;;;;;;;7.00;5.20;;;;;;;;;;2062898;28;20580;-82
2022/11/26 02:16:56;;;;;;;7.05;5.40;;;;;;;;;;2061040;28;20038;-83
2022/11/26 02:18:15;;;;;;;7.45;4.93;;;;;;;;;;2062337;28;20483;-83
2022/11/26 02:19:34;;;;;;;8.20;5.10;;;;;;;;;;2061499;28;20034;-83
2022/11/26 02:21:04;;;;;;;6.35;5.00;;;;;;;;;;2059840;28;20038;-82
2022/11/26 02:22:33;;;;;;;9.07;5.43;;;;;;;;;;2060009;28;20034;-82
2022/11/26 02:23:52;;;;;;;6.70;5.15;;;;;;;;;;2061897;28;20439;-83
2022/11/26 02:25:11;;;;;;;7.28;5.00;;;;;;;;;;2064141;28;20026;-82
2022/11/26 02:26:36;;;;;;;7.55;5.68;;;;;;;;;;2063890;28;20042;-83
2022/11/26 02:28:14;;;;;;;6.60;4.78;;;;;;;;;;2066532;28;20035;-82
2022/11/26 02:29:42;;;;;;;5.50;4.90;;;;;;;;;;2065995;28;20034;-82
2022/11/26 02:31:19;;;;;;;10.55;5.75;;;;;;;;;;2063576;28;20030;-82
2022/11/26 02:32:53;;;;;;;6.03;5.35;;;;;;;;;;2063680;28;20030;-82
2022/11/26 02:34:29;;;;;;;8.05;5.55;;;;;;;;;;2062998;28;20038;-82
2022/11/26 02:35:51;;;;;;;5.78;4.97;;;;;;;;;;2065600;28;20026;-82
2022/11/26 02:37:20;;;;;;;10.25;5.97;;;;;;;;;;2064427;28;20026;-82
2022/11/26 02:38:40;;;;;;;7.13;4.88;;;;;;;;;;2062072;28;20418;-80
2022/11/26 02:39:59;;;;;;;6.20;4.97;;;;;;;;;;2063395;28;20034;-81
2022/11/26 02:41:18;;;;;;;6.60;5.28;;;;;;;;;;2063775;28;20023;-81
2022/11/26 02:42:37;;;;;;;7.53;5.70;;;;;;;;;;2064156;28;20091;-81
2022/11/26 02:43:55;;;;;;;9.25;5.82;;;;;;;;;;2065635;28;20042;-81
2022/11/26 02:45:16;;;;;;;10.32;5.55;;;;;;;;;;2063535;28;20054;-81
2022/11/26 02:46:37;;;;;;;5.75;4.93;;;;;;;;;;2065362;28;20070;-81
2022/11/26 02:47:57;;;;;;;10.07;4.95;;;;;;;;;;2064189;28;20494;-81
2022/11/26 02:49:19;;;;;;;8.98;5.50;;;;;;;;;;2068732;28;20416;-82
2022/11/26 02:50:40;;;;;;;8.18;5.50;;;;;;;;;;2066877;28;20031;-82
2022/11/26 02:52:01;;;;;;;8.68;5.38;;;;;;;;;;2071895;28;20526;-82
2022/11/26 02:53:21;;;;;;;9.25;5.90;;;;;;;;;;2059244;28;20043;-85
2022/11/26 02:54:41;;;;;;;8.63;5.50;;;;;;;;;;2061915;28;20038;-81
2022/11/26 02:56:02;;;;;;;9.07;5.45;;;;;;;;;;2064415;28;20026;-82
2022/11/26 02:57:23;;;;;;;6.78;5.72;;;;;;;;;;2064091;28;20109;-81
2022/11/26 02:58:42;;;;;;;7.80;5.88;;;;;;;;;;2063770;28;20022;-81
2022/11/26 03:00:03;;;;;;;9.32;5.30;;;;;;;;;;2057052;28;20039;-81
2022/11/26 03:01:36;;;;;;;6.78;5.38;;;;;;;;;;2063300;28;20030;-82
2022/11/26 03:03:07;;;;;;;6.13;5.43;;;;;;;;;;2063607;28;20026;-81
2022/11/26 03:04:29;;;;;;;9.27;5.15;;;;;;;;;;2065769;28;20035;-81
2022/11/26 03:05:50;;;;;;;7.40;5.82;;;;;;;;;;2065026;28;20515;-81
2022/11/26 03:07:12;;;;;;;8.25;5.25;;;;;;;;;;2066940;28;20058;-80
2022/11/26 03:08:31;;;;;;;8.07;5.65;;;;;;;;;;2059111;28;20473;-80
2022/11/26 03:09:54;;;;;;;6.85;5.40;;;;;;;;;;2061268;28;20050;-83
2022/11/26 03:11:13;;;;;;;7.10;5.10;;;;;;;;;;2062678;28;20503;-82
2022/11/26 03:12:32;;;;;;;6.80;5.20;;;;;;;;;;2061414;28;20043;-81
2022/11/26 03:13:51;;;;;;;9.23;4.95;;;;;;;;;;2061162;28;20050;-81
2022/11/26 03:15:10;;;;;;;6.78;4.95;;;;;;;;;;2063765;28;20062;-82
2022/11/26 03:16:29;;;;;;;5.88;5.07;;;;;;;;;;2066152;28;20078;-82
2022/11/26 03:17:48;;;;;;;11.00;5.32;;;;;;;;;;2063001;28;20022;-82
2022/11/26 03:19:07;;;;;;;5.43;4.88;;;;;;;;;;2067510;28;20034;-81
2022/11/26 03:20:26;;;;;;;6.15;4.80;;;;;;;;;;2067494;28;20098;-81
2022/11/26 03:21:45;;;;;;;8.90;5.55;;;;;;;;;;2066971;28;20532;-82
2022/11/26 03:23:04;;;;;;;5.55;4.45;;;;;;;;;;2062851;28;21196;-82
2022/11/26 03:24:22;;;;;;;7.50;4.75;;;;;;;;;;2062621;28;20038;-82
2022/11/26 03:25:41;;;;;;;6.80;5.10;;;;;;;;;;2062567;28;20049;-82
2022/11/26 03:27:00;;;;;;;6.28;5.13;;;;;;;;;;2069045;28;20037;-82
2022/11/26 03:28:19;;;;;;;4.80;4.40;;;;;;;;;;2064643;28;20038;-82
2022/11/26 03:29:38;;;;;;;5.32;4.53;;;;;;;;;;2061917;28;20062;-83
2022/11/26 03:30:56;;;;;;;5.40;4.70;;;;;;;;;;2061814;28;20031;-82
2022/11/26 03:32:15;;;;;;;6.40;4.43;;;;;;;;;;2063945;28;20038;-83
2022/11/26 03:33:34;;;;;;;4.68;4.20;;;;;;;;;;2070865;28;20034;-82
2022/11/26 03:34:53;;;;;;;4.88;4.35;;;;;;;;;;2068507;28;20022;-82
2022/11/26 03:36:12;;;;;;;6.95;4.68;;;;;;;;;;2066376;28;20030;-82
2022/11/26 03:37:31;;;;;;;7.47;4.75;;;;;;;;;;2065048;28;20038;-82
2022/11/26 03:38:50;;;;;;;5.80;4.70;;;;;;;;;;2063515;28;20496;-82
2022/11/26 03:40:09;;;;;;;6.05;4.03;;;;;;;;;;2066337;28;20034;-82
2022/11/26 03:41:28;;;;;;;4.53;4.10;;;;;;;;;;2067855;28;20018;-82
2022/11/26 03:42:47;;;;;;;6.30;4.20;;;;;;;;;;2066592;28;20101;-82
2022/11/26 03:44:06;;;;;;;4.70;3.67;;;;;;;;;;2063311;28;20042;-83
2022/11/26 03:45:25;;;;;;;5.05;4.32;;;;;;;;;;2061318;28;20046;-82
2022/11/26 03:46:44;;;;;;;7.05;5.70;;;;;;;;;;2064268;28;20034;-83
2022/11/26 03:48:03;;;;;;;4.72;4.32;;;;;;;;;;2063289;28;20026;-82
2022/11/26 03:49:22;;;;;;;9.57;7.32;;;;;;;;;;2063065;28;20445;-82
2022/11/26 03:50:41;;;;;;;18.85;12.98;;;;;;;;;;2061064;28;20027;-82
2022/11/26 03:52:00;;;;;;;23.42;14.85;;;;;;;;;;2062191;28;20030;-82
2022/11/26 03:53:19;;;;;;;7.35;4.07;;;;;;;;;;2061950;28;20470;-82
2022/11/26 03:54:38;;;;;;;5.50;3.78;;;;;;;;;;2068854;28;20062;-82
2022/11/26 03:55:57;;;;;;;5.07;3.55;;;;;;;;;;2063031;28;20101;-83
2022/11/26 03:57:16;;;;;;;4.47;3.65;;;;;;;;;;2070895;28;20042;-83
2022/11/26 03:58:35;;;;;;;4.72;3.78;;;;;;;;;;2068179;28;20026;-82
2022/11/26 03:59:54;;;;;;;4.05;3.38;;;;;;;;;;2066163;28;20022;-83
2022/11/26 04:01:13;;;;;;;4.40;4.00;;;;;;;;;;2060958;28;20034;-83
2022/11/26 04:02:32;;;;;;;3.55;3.10;;;;;;;;;;2062482;28;20030;-83
2022/11/26 04:03:50;;;;;;;5.07;4.03;;;;;;;;;;2065495;28;20109;-83
2022/11/26 04:05:10;;;;;;;4.10;3.50;;;;;;;;;;2067242;28;20156;-83
2022/11/26 04:06:29;;;;;;;3.90;3.40;;;;;;;;;;2061650;28;20066;-84
2022/11/26 04:07:48;;;;;;;4.00;3.30;;;;;;;;;;2067048;28;20090;-83
2022/11/26 04:09:07;;;;;;;6.32;3.60;;;;;;;;;;2065883;28;20038;-82
2022/11/26 04:10:26;;;;;;;3.90;3.53;;;;;;;;;;2067438;28;20034;-83
2022/11/26 04:11:45;;;;;;;4.45;3.25;;;;;;;;;;2063657;28;20035;-83
2022/11/26 04:13:03;;;;;;;3.92;3.30;;;;;;;;;;2064394;28;20455;-80
2022/11/26 04:14:22;;;;;;;4.20;3.42;;;;;;;;;;2060792;28;20515;-80
2022/11/26 04:15:42;;;;;;;24.52;14.18;;;;;;;;;;2064984;28;20031;-80
2022/11/26 04:17:00;;;;;;;7.47;5.50;;;;;;;;;;2065274;28;20034;-82
2022/11/26 04:18:19;;;;;;;44.55;25.00;;;;;;;;;;2070459;28;20108;-80
2022/11/26 04:19:38;;;;;;;10.63;7.13;;;;;;;;;;2066169;28;20480;-81
2022/11/26 04:20:56;;;;;;;14.48;10.07;;;;;;;;;;2064292;28;20026;-80
2022/11/26 04:22:15;;;;;;;7.32;5.65;;;;;;;;;;2061837;28;20030;-79
2022/11/26 04:23:34;;;;;;;7.07;4.10;;;;;;;;;;2066889;28;20045;-80
2022/11/26 04:24:53;;;;;;;6.10;3.83;;;;;;;;;;2065806;28;20034;-80
2022/11/26 04:26:12;;;;;;;4.15;3.75;;;;;;;;;;2059672;28;20503;-80
2022/11/26 04:27:31;;;;;;;4.18;3.83;;;;;;;;;;2064995;28;20026;-81
2022/11/26 04:28:50;;;;;;;5.32;4.15;;;;;;;;;;2066289;28;20034;-80
2022/11/26 04:30:09;;;;;;;5.95;4.18;;;;;;;;;;2059052;28;20026;-80
2022/11/26 04:31:28;;;;;;;5.63;4.03;;;;;;;;;;2060374;28;20113;-80
2022/11/26 04:32:47;;;;;;;5.43;3.70;;;;;;;;;;2062038;28;20614;-80
2022/11/26 04:34:09;;;;;;;5.55;3.63;;;;;;;;;;2061585;28;20030;-80
2022/11/26 04:35:28;;;;;;;6.53;3.95;;;;;;;;;;2063633;28;20101;-80
2022/11/26 04:36:46;;;;;;;4.25;3.70;;;;;;;;;;2065118;28;20109;-80
2022/11/26 04:38:05;;;;;;;4.32;3.67;;;;;;;;;;2064143;28;20031;-80
2022/11/26 04:39:24;;;;;;;4.90;3.80;;;;;;;;;;2061145;28;20038;-80
2022/11/26 04:40:43;;;;;;;8.32;3.95;;;;;;;;;;2067919;28;20046;-80
2022/11/26 04:42:02;;;;;;;5.40;3.78;;;;;;;;;;2065614;28;20504;-80
2022/11/26 04:43:21;;;;;;;5.65;4.40;;;;;;;;;;2061536;28;20038;-80
2022/11/26 04:44:40;;;;;;;4.78;4.20;;;;;;;;;;2059554;28;20047;-82
2022/11/26 04:45:59;;;;;;;6.13;4.30;;;;;;;;;;2062084;28;20148;-81
2022/11/26 04:47:18;;;;;;;4.95;4.03;;;;;;;;;;2062491;28;20065;-80
2022/11/26 04:48:37;;;;;;;5.68;3.80;;;;;;;;;;2062335;28;20503;-80
2022/11/26 04:49:56;;;;;;;7.15;4.63;;;;;;;;;;2065474;28;20479;-80
2022/11/26 04:51:16;;;;;;;7.82;4.50;;;;;;;;;;2066262;28;20057;-80
2022/11/26 04:52:35;;;;;;;5.00;4.15;;;;;;;;;;2066069;28;20038;-80
2022/11/26 04:53:54;;;;;;;5.70;4.30;;;;;;;;;;2066200;28;20043;-79
2022/11/26 04:55:16;;;;;;;6.32;4.35;;;;;;;;;;2063768;28;20027;-80
2022/11/26 04:56:35;;;;;;;4.28;3.88;;;;;;;;;;2067355;28;20030;-80
2022/11/26 04:57:54;;;;;;;4.47;4.07;;;;;;;;;;2063984;28;20034;-80
2022/11/26 04:59:12;;;;;;;6.10;4.07;;;;;;;;;;2063935;28;20022;-81
2022/11/26 05:00:31;;;;;;;6.22;4.25;;;;;;;;;;2060177;28;20042;-80
2022/11/26 05:01:50;;;;;;;5.32;4.45;;;;;;;;;;2064664;28;20503;-79
2022/11/26 05:03:09;;;;;;;5.68;4.55;;;;;;;;;;2066970;28;20018;-78
2022/11/26 05:04:29;;;;;;;6.95;4.55;;;;;;;;;;2065009;28;20384;-80
2022/11/26 05:05:47;;;;;;;6.45;4.60;;;;;;;;;;2060795;28;20034;-79
2022/11/26 05:07:06;;;;;;;6.82;5.22;;;;;;;;;;2064661;28;20426;-81
2022/11/26 05:08:25;;;;;;;7.80;5.03;;;;;;;;;;2065878;28;20112;-80
2022/11/26 05:09:44;;;;;;;7.78;5.22;;;;;;;;;;2063081;28;20030;-80
2022/11/26 05:11:03;;;;;;;7.57;5.43;;;;;;;;;;2063070;28;20030;-80
2022/11/26 05:12:22;;;;;;;9.05;5.53;;;;;;;;;;2062595;28;20027;-79
2022/11/26 05:13:41;;;;;;;7.05;4.88;;;;;;;;;;2060923;28;20038;-81
2022/11/26 05:15:00;;;;;;;6.05;5.45;;;;;;;;;;2062643;28;20031;-79
2022/11/26 05:16:19;;;;;;;7.78;5.65;;;;;;;;;;2062437;28;20031;-79
2022/11/26 05:17:38;;;;;;;6.57;5.43;;;;;;;;;;2061598;28;20066;-79
2022/11/26 05:18:57;;;;;;;9.25;5.20;;;;;;;;;;2061299;28;20030;-80
2022/11/26 05:20:16;;;;;;;12.55;5.60;;;;;;;;;;2063271;28;20034;-80
2022/11/26 05:21:35;;;;;;;9.77;5.95;;;;;;;;;;2061909;28;20042;-79
2022/11/26 05:22:54;;;;;;;7.90;5.50;;;;;;;;;;2061952;28;20035;-80
2022/11/26 05:24:12;;;;;;;7.75;5.60;;;;;;;;;;2060634;28;20450;-79
2022/11/26 05:25:31;;;;;;;7.40;5.85;;;;;;;;;;2062649;28;20133;-79
2022/11/26 05:26:50;;;;;;;9.27;5.80;;;;;;;;;;2060943;28;20030;-79
2022/11/26 05:28:08;;;;;;;6.70;5.65;;;;;;;;;;2061930;28;20034;-80
2022/11/26 05:29:28;;;;;;;8.38;6.13;;;;;;;;;;2064040;28;20039;-82
2022/11/26 05:30:47;;;;;;;12.15;6.75;;;;;;;;;;2065542;28;20034;-79
2022/11/26 05:32:06;;;;;;;9.10;6.65;;;;;;;;;;2065821;28;20039;-80
2022/11/26 05:33:25;;;;;;;8.85;6.28;;;;;;;;;;2063935;28;20026;-80
2022/11/26 05:34:44;;;;;;;8.95;6.20;;;;;;;;;;2063273;28;20042;-80
2022/11/26 05:36:04;;;;;;;8.77;5.63;;;;;;;;;;2064486;28;20459;-80
2022/11/26 05:37:23;;;;;;;7.75;5.97;;;;;;;;;;2061697;28;20034;-80
2022/11/26 05:38:41;;;;;;;10.43;5.90;;;;;;;;;;2061658;28;20105;-80
2022/11/26 05:40:01;;;;;;;9.68;5.95;;;;;;;;;;2068674;28;20026;-81
2022/11/26 05:41:19;;;;;;;8.35;5.97;;;;;;;;;;2067835;28;20030;-80
2022/11/26 05:42:38;;;;;;;8.68;6.50;;;;;;;;;;2064760;28;20026;-78
2022/11/26 05:43:57;;;;;;;11.07;7.03;;;;;;;;;;2070519;28;20172;-80
2022/11/26 05:45:16;;;;;;;10.73;6.55;;;;;;;;;;2063565;28;20154;-80
2022/11/26 05:46:38;;;;;;;10.63;6.22;;;;;;;;;;2062129;28;20030;-78
2022/11/26 05:47:57;;;;;;;11.65;6.80;;;;;;;;;;2066551;28;20022;-81
2022/11/26 05:49:16;;;;;;;9.63;6.03;;;;;;;;;;2064747;28;20109;-77
2022/11/26 05:50:35;;;;;;;9.57;6.60;;;;;;;;;;2064835;28;20034;-79
2022/11/26 05:51:54;;;;;;;10.73;6.63;;;;;;;;;;2064884;28;20442;-78
2022/11/26 05:53:13;;;;;;;11.27;6.32;;;;;;;;;;2067141;28;20443;-79
2022/11/26 05:54:32;;;;;;;8.50;6.70;;;;;;;;;;2060874;28;20475;-78
2022/11/26 05:55:51;;;;;;;9.55;6.25;;;;;;;;;;2061554;28;20034;-79
2022/11/26 05:57:10;;;;;;;10.40;6.85;;;;;;;;;;2069423;28;20022;-79
2022/11/26 05:58:29;;;;;;;10.57;6.95;;;;;;;;;;2064841;28;20030;-81
2022/11/26 05:59:48;;;;;;;11.32;6.97;;;;;;;;;;2062189;28;20503;-78
2022/11/26 06:01:08;;;;;;;12.70;7.22;;;;;;;;;;2062014;28;20062;-79
2022/11/26 06:02:27;;;;;;;10.02;6.82;;;;;;;;;;2060901;28;20022;-80
2022/11/26 06:03:46;;;;;;;10.10;6.78;;;;;;;;;;2061859;28;20023;-79
2022/11/26 06:05:05;;;;;;;10.90;6.70;;;;;;;;;;2061002;28;20046;-79
2022/11/26 06:06:24;;;;;;;11.30;7.03;;;;;;;;;;2062805;28;20065;-79
2022/11/26 06:07:43;;;;;;;11.82;6.63;;;;;;;;;;2064113;28;20052;-80
2022/11/26 06:09:02;;;;;;;12.63;7.72;;;;;;;;;;2062922;28;20030;-78
2022/11/26 06:10:21;;;;;;;12.65;7.03;;;;;;;;;;2060732;28;20026;-78
2022/11/26 06:11:40;;;;;;;10.05;6.97;;;;;;;;;;2061117;28;20023;-79
2022/11/26 06:12:59;;;;;;;12.30;7.35;;;;;;;;;;2060695;28;20058;-78
2022/11/26 06:14:18;;;;;;;10.73;6.70;;;;;;;;;;2060620;28;20407;-78
2022/11/26 06:15:37;;;;;;;9.88;6.47;;;;;;;;;;2056221;28;20515;-81
2022/11/26 06:16:56;;;;;;;9.98;6.53;;;;;;;;;;2063060;28;20054;-80
2022/11/26 06:18:16;;;;;;;10.98;7.32;;;;;;;;;;2061745;28;20137;-78
2022/11/26 06:19:35;;;;;;;9.80;6.95;;;;;;;;;;2061906;28;20444;-78
2022/11/26 06:20:58;;;;;;;13.32;7.28;;;;;;;;;;2060524;28;20030;-79
2022/11/26 06:22:17;;;;;;;11.50;7.47;;;;;;;;;;2071217;28;20014;-79
2022/11/26 06:23:35;;;;;;;13.10;7.68;;;;;;;;;;2067121;28;20030;-80
2022/11/26 06:24:54;;;;;;;9.20;6.97;;;;;;;;;;2060544;28;20034;-81
2022/11/26 06:26:14;;;;;;;9.82;6.85;;;;;;;;;;2059732;28;20511;-79
2022/11/26 06:27:32;;;;;;;9.27;6.85;;;;;;;;;;2060026;28;20054;-78
2022/11/26 06:28:51;;;;;;;14.23;7.55;;;;;;;;;;2060440;28;20043;-78
2022/11/26 06:30:10;;;;;;;10.15;6.40;;;;;;;;;;2061463;28;20026;-80
2022/11/26 06:31:29;;;;;;;10.55;6.95;;;;;;;;;;2058621;28;20419;-79
2022/11/26 06:32:49;;;;;;;8.80;7.05;;;;;;;;;;2063255;28;20038;-80
2022/11/26 06:34:08;;;;;;;12.10;7.38;;;;;;;;;;2062934;28;20038;-79
2022/11/26 06:35:27;;;;;;;12.38;7.30;;;;;;;;;;2057378;28;20031;-79
2022/11/26 06:36:46;;;;;;;9.77;6.88;;;;;;;;;;2062972;28;20046;-80
2022/11/26 06:38:05;;;;;;;11.10;7.15;;;;;;;;;;2065117;28;20034;-79
2022/11/26 06:39:23;;;;;;;8.82;7.15;;;;;;;;;;2064027;28;20035;-78
2022/11/26 06:40:42;;;;;;;9.90;6.55;;;;;;;;;;2060818;28;20109;-79
2022/11/26 06:42:01;;;;;;;9.98;7.07;;;;;;;;;;2063798;28;20467;-78
2022/11/26 06:43:20;;;;;;;10.35;6.72;;;;;;;;;;2064643;28;20046;-79
2022/11/26 06:44:39;;;;;;;14.05;7.10;;;;;;;;;;2062191;28;20038;-79
2022/11/26 06:46:02;;;;;;;7.88;6.40;;;;;;;;;;2059747;28;20027;-78
2022/11/26 06:47:21;;;;;;;8.93;7.32;;;;;;;;;;2064801;28;20030;-79
2022/11/26 06:48:40;;;;;;;10.20;7.03;;;;;;;;;;2064350;28;20114;-80
2022/11/26 06:49:59;;;;;;;12.85;7.45;;;;;;;;;;2063016;28;20026;-80
2022/11/26 06:51:20;;;;;;;12.40;6.70;;;;;;;;;;2063601;28;20411;-80
2022/11/26 06:52:39;;;;;;;11.43;7.25;;;;;;;;;;2063911;28;20030;-80
2022/11/26 06:53:58;;;;;;;9.23;6.95;;;;;;;;;;2065094;28;20042;-81
2022/11/26 06:55:17;;;;;;;10.55;7.15;;;;;;;;;;2061357;28;20058;-81
2022/11/26 06:56:38;;;;;;;12.23;7.20;;;;;;;;;;2062585;28;20034;-81
2022/11/26 06:57:57;;;;;;;11.77;7.70;;;;;;;;;;2062751;28;20026;-80
2022/11/26 06:59:16;;;;;;;9.18;6.90;;;;;;;;;;2062332;28;20022;-81
2022/11/26 07:00:34;;;;;;;11.63;7.50;;;;;;;;;;2061630;28;20033;-79
2022/11/26 07:01:53;;;;;;;9.02;7.38;;;;;;;;;;2063331;28;20113;-79
2022/11/26 07:03:12;;;;;;;10.90;6.93;;;;;;;;;;2063376;28;20724;-79
2022/11/26 07:04:31;;;;;;;11.18;7.50;;;;;;;;;;2065449;28;20038;-80
2022/11/26 07:05:50;;;;;;;11.73;7.15;;;;;;;;;;2061086;28;20126;-78
2022/11/26 07:07:09;;;;;;;9.77;6.28;;;;;;;;;;2061645;28;20031;-79
2022/11/26 07:08:28;;;;;;;11.50;6.97;;;;;;;;;;2067359;28;20387;-80
2022/11/26 07:09:47;;;;;;;9.10;6.60;;;;;;;;;;2066096;28;20031;-79
2022/11/26 07:11:06;;;;;;;10.88;6.97;;;;;;;;;;2061575;28;20039;-80
2022/11/26 07:12:25;;;;;;;7.43;6.25;;;;;;;;;;2066166;28;20685;-79
2022/11/26 07:13:44;;;;;;;12.95;7.53;;;;;;;;;;2068138;28;20026;-79
2022/11/26 07:15:03;;;;;;;10.55;7.72;;;;;;;;;;2063774;28;20030;-79
2022/11/26 07:16:22;;;;;;;13.55;7.95;;;;;;;;;;2065368;28;20030;-79
2022/11/26 07:17:41;;;;;;;11.63;7.38;;;;;;;;;;2065263;28;20113;-79
2022/11/26 07:19:00;;;;;;;10.55;7.53;;;;;;;;;;2061263;28;20030;-80
2022/11/26 07:20:19;;;;;;;11.07;7.15;;;;;;;;;;2062869;28;20030;-79
2022/11/26 07:21:38;;;;;;;9.65;7.25;;;;;;;;;;2063014;28;20396;-79
2022/11/26 07:22:57;;;;;;;9.85;6.53;;;;;;;;;;2066267;28;20042;-80
2022/11/26 07:24:16;;;;;;;11.95;7.60;;;;;;;;;;2065843;28;20042;-80
2022/11/26 07:25:35;;;;;;;9.07;6.97;;;;;;;;;;2066675;28;20039;-79
2022/11/26 07:26:55;;;;;;;8.63;7.00;;;;;;;;;;2064132;28;20484;-79
2022/11/26 07:28:14;;;;;;;10.85;7.57;;;;;;;;;;2061897;28;20034;-78
2022/11/26 07:29:33;;;;;;;12.88;8.13;;;;;;;;;;2061436;28;20125;-77
2022/11/26 07:30:51;;;;;;;11.50;7.85;;;;;;;;;;2055815;28;20035;-78
2022/11/26 07:32:10;;;;;;;9.80;7.20;;;;;;;;;;2060321;28;20034;-77
2022/11/26 07:33:29;;;;;;;10.40;6.95;;;;;;;;;;2065349;28;20501;-78
2022/11/26 07:34:48;;;;;;;12.20;7.05;;;;;;;;;;2064014;28;20603;-79
2022/11/26 07:36:10;;;;;;;10.65;6.85;;;;;;;;;;2061508;28;20031;-77
2022/11/26 07:37:30;;;;;;;9.00;7.07;;;;;;;;;;2065553;28;20022;-77
2022/11/26 07:38:52;;;;;;;14.13;6.93;;;;;;;;;;2065018;28;20109;-79
2022/11/26 07:40:10;;;;;;;10.88;7.38;;;;;;;;;;2063609;28;20030;-79
2022/11/26 07:41:32;;;;;;;12.10;7.82;;;;;;;;;;2063843;28;20037;-80
2022/11/26 07:42:51;;;;;;;12.10;7.82;;;;;;;;;;2066010;28;20034;-79
2022/11/26 07:44:12;;;;;;;10.18;7.13;;;;;;;;;;2063261;28;20042;-79
2022/11/26 07:45:34;;;;;;;11.75;7.22;;;;;;;;;;2065343;28;20027;-78
2022/11/26 07:46:53;;;;;;;9.43;7.63;;;;;;;;;;2061152;28;20031;-78
2022/11/26 07:48:12;;;;;;;9.82;6.95;;;;;;;;;;2062671;28;20110;-78
2022/11/26 07:49:31;;;;;;;8.75;6.93;;;;;;;;;;2062654;28;20062;-77
2022/11/26 07:50:49;;;;;;;9.70;7.57;;;;;;;;;;2058941;28;20478;-78
2022/11/26 07:52:08;;;;;;;10.18;7.57;;;;;;;;;;2064293;28;20035;-78
2022/11/26 07:53:31;;;;;;;10.07;7.68;;;;;;;;;;2066335;28;20125;-79
2022/11/26 07:54:50;;;;;;;10.18;6.95;;;;;;;;;;2064968;28;20495;-80
2022/11/26 07:56:11;;;;;;;9.43;7.72;;;;;;;;;;2062274;28;20030;-77
2022/11/26 07:57:30;;;;;;;14.32;7.68;;;;;;;;;;2061289;28;20031;-77